Latest Weather Observations for Hogan Island

IDT60801

Issued at 1:35 am EST Saturday 2 August 2014 (issued every 30 minutes, with the page automatically refreshed every 10 minutes)

About weather observations | Map of weather stations | Latest weather observations for TAS | Other Formats
Station Details ID: 200838 Name: HOGAN ISLAND Lat: -39.22 Lon: 146.98 Height: 116.0 m
Data from the previous 72 hours. | See also: Recent months at Hogan Island
Date/Time
EST
Temp
°C
App
Temp
°C
Dew
Point
Rel
Hum
%
Delta-T
°C
Wind Press
QNH
hPa
Press
MSL
hPa
Rain
since 9 am
mm
Dir
 
Spd
km/h
Gust
km/h
Spd
kts
Gust
kts
02/01:30am 8.1 -3.2 1.5 63 2.7 SW 50 57 27 31 1018.7 - 8.2
02/01:00am 8.3 -3.6 2.3 66 2.5 SW 54 63 29 34 1018.0 - 8.2
02/12:30am 8.3 -2.5 2.1 65 2.6 SW 48 61 26 33 1017.5 - 8.2
02/12:00am 8.5 -2.4 3.4 70 2.2 SW 50 61 27 33 1016.9 1017.0 8.2
 
Date/Time
EST
Temp
°C
App
Temp
°C
Dew
Point
Rel
Hum
%
Delta-T
°C
Wind Press
QNH
hPa
Press
MSL
hPa
Rain
since 9 am
mm
Dir
 
Spd
km/h
Gust
km/h
Spd
kts
Gust
kts
01/11:30pm 8.5 -3.8 3.4 70 2.2 SW 57 69 31 37 1016.3 - 8.2
01/11:00pm 8.4 -4.1 2.0 64 2.7 SW 57 69 31 37 1015.7 - 8.2
01/10:30pm 8.7 -4.0 3.3 69 2.3 SW 59 69 32 37 1015.0 - 8.2
01/10:00pm 8.7 -4.2 1.8 62 2.9 SW 59 70 32 38 1014.6 - 8.2
01/09:30pm 9.1 -3.2 3.1 66 2.6 SW 57 69 31 37 1013.7 - 8.2
01/09:00pm 9.1 -3.5 3.5 68 2.4 SW 59 67 32 36 1012.7 1012.8 8.2
01/08:30pm 9.1 -2.2 3.7 69 2.4 SW 52 67 28 36 1012.1 - 8.2
01/08:00pm 8.9 -3.3 3.9 71 2.2 SW 57 69 31 37 1011.2 - 8.2
01/07:54pm 8.8 -3.9 3.2 68 2.4 SW 59 78 32 42 1011.1 - 8.2
01/07:30pm 8.7 -4.0 3.1 68 2.4 SW 59 72 32 39 1010.1 - 8.2
01/07:00pm 7.6 -4.6 3.5 75 1.8 SW 57 82 31 44 1009.2 - 8.2
01/06:30pm 7.8 -4.3 4.2 78 1.6 SW 57 82 31 44 1008.2 - 8.2
01/06:29pm 7.8 -4.2 4.0 77 1.7 SW 56 82 30 44 1008.2 - 8.2
01/06:27pm 7.6 -4.0 3.8 77 1.6 SW 54 83 29 45 1008.1 - 8.2
01/06:21pm 7.9 -7.8 4.1 77 1.7 SW 76 95 41 51 1007.8 - 8.2
01/06:00pm 7.0 -9.8 4.7 85 1.0 SW 82 98 44 53 1006.8 1006.9 8.2
01/05:30pm 7.3 -8.9 3.4 76 1.7 SW 78 100 42 54 1005.5 - 8.0
01/05:15pm 8.3 -5.7 4.1 75 1.8 SW 67 85 36 46 1005.2 - 8.0
01/05:00pm 7.9 -6.4 4.5 79 1.5 WSW 69 82 37 44 1004.7 - 8.0
01/04:30pm 7.1 -7.4 3.7 79 1.5 WSW 69 89 37 48 1004.0 - 7.8
01/04:24pm 7.6 -7.1 3.3 74 1.8 W 70 89 38 48 1003.6 - 7.6
01/04:15pm 8.8 -5.7 4.4 74 1.9 WSW 70 74 38 40 1003.5 - 7.6
01/04:00pm 8.0 -2.7 4.6 79 1.5 W 50 63 27 34 1003.8 - 7.6
01/03:30pm 8.1 -2.6 4.7 79 1.5 W 50 59 27 32 1003.1 - 7.6
01/03:11pm 8.1 -1.8 5.0 81 1.4 W 46 61 25 33 1002.6 - 7.6
01/03:00pm 8.5 -2.3 6.1 85 1.1 WSW 52 61 28 33 1002.8 1002.8 7.6
01/02:51pm 8.9 -1.2 7.2 89 0.8 W 50 54 27 29 1002.6 - 7.6
01/02:30pm 6.8 -2.0 5.4 91 0.6 WNW 41 48 22 26 1002.2 - 7.6
01/02:00pm 6.3 -2.6 5.1 92 0.5 WNW 41 50 22 27 1001.6 - 7.6
01/01:30pm 3.9 -7.2 2.7 92 0.5 WNW 50 59 27 32 1001.6 - 7.2
01/01:25pm 3.9 -6.8 2.6 91 0.5 WNW 48 65 26 35 1001.6 - 7.0
01/01:00pm 5.3 -9.3 4.0 91 0.6 WNW 70 87 38 47 1000.7 - 4.6
01/12:30pm 5.4 -7.9 4.1 91 0.6 W 63 74 34 40 1000.6 - 3.8
01/12:00pm 5.0 -9.6 3.2 88 0.8 W 69 91 37 49 1000.2 1000.3 1.0
01/11:54am 5.1 -11.2 3.0 86 0.9 W 78 96 42 52 1000.2 - 0.6
01/11:47am 4.9 -12.6 1.7 80 1.3 W 83 102 45 55 999.4 - 0.0
01/11:30am 8.5 -9.4 3.6 71 2.1 WNW 87 100 47 54 998.4 - 0.0
01/11:00am 8.2 -9.4 3.3 71 2.1 WNW 85 100 46 54 998.3 - 0.0
01/10:32am 8.2 -10.2 3.3 71 2.1 WNW 89 107 48 58 998.0 - 0.0
01/10:30am 8.2 -10.5 3.3 71 2.1 WNW 91 107 49 58 998.0 - 0.0
01/10:05am 8.1 -11.1 2.8 69 2.2 WNW 93 111 50 60 997.4 - 0.0
01/10:00am 8.0 -11.5 3.1 71 2.1 WNW 95 111 51 60 997.2 - 0.0
01/09:34am 8.0 -10.4 3.1 71 2.1 WNW 89 107 48 58 996.5 - 0.0
01/09:30am 8.0 -10.3 3.5 73 1.9 WNW 89 106 48 57 996.9 - 0.0
01/09:01am 8.0 -10.7 3.3 72 2.0 WNW 91 109 49 59 996.7 - 0.0
01/09:00am 8.0 -11.1 3.3 72 2.0 WNW 93 109 50 59 996.6 996.7 10.6
01/08:43am 7.7 -11.8 3.2 73 1.9 WNW 95 113 51 61 996.6 - 10.6
01/08:30am 7.5 -12.3 2.8 72 2.0 WNW 96 111 52 60 996.2 - 10.6
01/08:00am 7.7 -10.6 3.4 74 1.8 WNW 89 109 48 59 996.0 - 10.6
01/07:30am 7.3 -12.8 3.0 74 1.8 WNW 98 117 53 63 995.1 - 10.6
01/07:13am 7.4 -12.1 3.5 76 1.7 WNW 95 113 51 61 995.8 - 10.6
01/07:00am 7.2 -12.5 3.1 75 1.7 WNW 96 111 52 60 995.5 - 10.6
01/06:31am 7.2 -11.1 3.4 77 1.6 WNW 89 109 48 59 995.3 - 10.6
01/06:30am 7.4 -10.5 3.6 77 1.6 WNW 87 104 47 56 995.4 - 10.6
01/06:00am 7.5 -10.8 3.6 76 1.7 WNW 89 102 48 55 995.1 995.1 10.6
01/05:30am 7.3 -10.2 3.7 78 1.5 WNW 85 100 46 54 995.7 - 10.6
01/05:08am 7.2 -10.7 3.6 78 1.5 WNW 87 106 47 57 995.5 - 10.6
01/05:00am 7.3 -9.8 3.9 79 1.5 WNW 83 96 45 52 995.7 - 10.6
01/04:30am 7.3 -10.1 4.1 80 1.4 WNW 85 96 46 52 995.6 - 10.6
01/04:29am 7.2 -10.3 4.0 80 1.4 WNW 85 96 46 52 995.6 - 10.6
01/04:14am 7.5 -6.4 4.5 81 1.3 WNW 67 89 36 48 996.0 - 10.6
01/04:00am 7.4 -9.5 4.0 79 1.5 WNW 82 95 44 51 995.9 - 10.6
01/03:41am 7.2 -8.2 4.0 80 1.4 WNW 74 93 40 50 996.2 - 10.4
01/03:30am 7.2 -9.8 4.3 82 1.3 WNW 83 96 45 52 996.3 - 10.4
01/03:03am 7.3 -8.4 6.1 92 0.5 WNW 78 85 42 46 996.8 - 10.4
01/03:00am 7.0 -3.8 5.8 92 0.5 WNW 52 82 28 44 997.0 997.1 10.4
01/02:30am 5.2 -6.4 4.0 92 0.5 WNW 54 74 29 40 997.6 - 10.0
01/02:20am 5.4 -8.2 4.2 92 0.5 W 65 83 35 45 997.3 - 9.8
01/02:00am 5.7 -8.2 4.7 93 0.4 W 67 78 36 42 997.3 - 9.2
01/01:30am 2.9 -13.4 1.0 87 0.7 W 76 98 41 53 997.1 - 7.6
01/01:27am 3.7 -11.8 1.3 84 0.9 W 72 91 39 49 997.2 - 7.0
01/01:22am 5.2 -9.2 1.9 79 1.3 W 67 102 36 55 997.5 - 6.2
01/01:20am 6.4 -10.9 3.0 79 1.4 WNW 83 102 45 55 997.4 - 6.2
01/01:00am 7.8 -9.0 4.6 80 1.4 WNW 82 96 44 52 995.7 - 6.2
01/12:30am 7.4 -7.9 4.4 81 1.3 NW 74 95 40 51 995.6 - 6.2
01/12:06am 8.6 -8.5 4.0 73 2.0 WNW 83 102 45 55 995.1 - 6.2
01/12:00am 8.5 -10.1 3.9 73 2.0 WNW 91 107 49 58 994.8 994.8 6.2
 
Date/Time
EST
Temp
°C
App
Temp
°C
Dew
Point
Rel
Hum
%
Delta-T
°C
Wind Press
QNH
hPa
Press
MSL
hPa
Rain
since 9 am
mm
Dir
 
Spd
km/h
Gust
km/h
Spd
kts
Gust
kts
31/11:30pm 7.8 -8.5 6.7 93 0.5 WNW 82 104 44 56 995.1 - 6.2
31/11:24pm 7.3 -8.0 6.4 94 0.4 WNW 76 95 41 51 995.6 - 6.2
31/11:10pm 5.6 -10.4 4.7 94 0.4 W 78 117 42 63 996.3 - 6.2
31/11:00pm 4.5 -17.3 3.0 90 0.6 W 107 126 58 68 995.7 - 5.8
31/10:57pm 6.0 -15.6 3.3 83 1.1 W 106 126 57 68 995.1 - 5.4
31/10:56pm 7.2 -13.0 4.5 83 1.2 W 100 115 54 62 995.4 - 5.4
31/10:44pm 8.4 -7.0 5.7 83 1.2 WNW 76 98 41 53 994.8 - 5.4
31/10:30pm 8.4 -8.2 5.3 81 1.4 WNW 82 95 44 51 995.1 - 5.4
31/10:00pm 8.4 -8.3 5.7 83 1.2 WNW 83 100 45 54 994.5 - 5.4
31/09:49pm 8.1 -9.1 5.4 83 1.2 WNW 85 104 46 56 994.4 - 5.4
31/09:30pm 8.2 -10.1 5.5 83 1.2 WNW 91 106 49 57 993.9 - 5.4
31/09:00pm 8.4 -9.4 5.9 84 1.2 WNW 89 102 48 55 994.2 994.2 5.2
31/08:37pm 8.0 -8.3 4.9 81 1.4 WNW 80 104 43 56 994.1 - 5.2
31/08:30pm 8.0 -8.0 4.9 81 1.4 WNW 78 93 42 50 994.3 - 5.2
31/08:00pm 7.7 -8.0 4.5 80 1.4 WNW 76 102 41 55 994.0 - 5.2
31/07:47pm 7.7 -6.7 4.3 79 1.5 NW 69 96 37 52 994.5 - 5.2
31/07:30pm 7.6 -10.7 3.8 77 1.6 WNW 89 107 48 58 994.1 - 5.2
31/07:06pm 8.3 -9.3 6.8 90 0.7 WNW 89 115 48 62 993.8 - 5.0
31/07:00pm 8.0 -10.0 6.9 93 0.5 WNW 91 111 49 60 994.0 - 4.8
31/06:54pm 7.8 -11.0 6.9 94 0.4 WNW 95 124 51 67 993.9 - 4.8
31/06:34pm 7.0 -16.1 6.4 96 0.3 W 117 135 63 73 992.8 - 4.6
31/06:33pm 6.4 -17.7 5.8 96 0.3 W 122 135 66 73 992.2 - 4.6
31/06:30pm 7.5 -12.6 6.9 96 0.3 WNW 102 122 55 66 992.8 - 4.6
31/06:00pm 6.7 -13.2 6.0 95 0.3 W 100 124 54 67 993.4 993.4 3.6
31/05:30pm 6.8 -14.2 6.2 96 0.3 W 106 126 57 68 992.5 - 3.2
31/05:25pm 7.2 -13.9 6.6 96 0.3 W 107 126 58 68 992.7 - 3.0
31/05:21pm 6.7 -15.7 6.0 95 0.3 W 113 124 61 67 992.2 - 3.0
31/05:12pm 7.9 -10.4 7.1 95 0.4 W 93 111 50 60 993.1 - 2.2
31/05:00pm 7.4 -12.0 6.7 95 0.3 W 98 137 53 74 992.2 - 2.2
31/04:58pm 7.4 -12.4 6.7 95 0.3 W 100 137 54 74 992.1 - 2.0
31/04:55pm 6.9 -16.6 6.2 95 0.3 W 119 137 64 74 991.2 - 2.0
31/04:30pm 8.0 -11.2 7.4 96 0.3 W 98 117 53 63 991.2 - 1.6
31/04:00pm 8.3 -12.0 7.5 95 0.4 W 104 122 56 66 990.9 - 1.0
31/03:48pm 9.0 -11.8 7.9 93 0.5 W 107 126 58 68 990.4 - 0.6
31/03:30pm 9.1 -12.6 7.5 90 0.8 W 111 145 60 78 988.3 - 0.0
31/03:29pm 9.1 -12.2 7.5 90 0.8 W 109 145 59 78 988.6 - 0.0
31/03:00pm 11.0 -7.7 7.9 81 1.5 W 96 120 52 65 - - 0.0
31/02:52pm 14.5 -4.2 7.8 64 3.3 WNW 96 115 52 62 988.0 - 0.0
31/02:49pm 16.0 -4.6 6.4 53 4.7 WNW 104 115 56 62 986.9 - 0.0
31/02:30pm 16.0 -0.6 6.4 53 4.7 NW 83 109 45 59 987.3 - 0.0
31/02:00pm 16.2 0.4 7.2 55 4.5 WNW 80 102 43 55 988.1 - 0.0
31/01:30pm 16.2 0.2 6.3 52 4.9 NW 80 109 43 59 988.3 - 0.0
31/01:00pm 16.2 -2.3 6.6 53 4.7 NW 93 117 50 63 988.6 - 0.0
31/12:30pm 16.2 -1.5 6.6 53 4.7 NW 89 115 48 62 989.6 - 0.0
31/12:00pm 16.3 0.8 7.0 54 4.7 NW 78 104 42 56 990.9 991.0 0.0
31/11:30am 16.3 0.7 6.7 53 4.7 NW 78 109 42 59 991.8 - 0.0
31/11:00am 16.2 0.5 6.3 52 4.9 NW 78 109 42 59 992.5 - 0.0
31/10:30am 15.9 0.4 6.9 55 4.5 NW 78 98 42 53 993.3 - 0.0
31/10:00am 15.6 0.2 7.6 59 4.0 NW 78 100 42 54 994.2 - 0.0
31/09:30am 15.5 0.8 7.3 58 4.1 NW 74 95 40 51 995.0 - 0.0
31/09:01am 15.1 0.0 7.2 59 3.9 WNW 76 95 41 51 995.8 - 0.0
31/09:00am 15.1 0.0 7.2 59 3.9 WNW 76 93 41 50 995.8 995.8 1.0
31/08:30am 14.7 0.0 7.3 61 3.7 NW 74 98 40 53 996.6 - 1.0
31/08:00am 14.5 -1.3 7.5 63 3.5 NW 80 100 43 54 996.8 - 1.0
31/07:30am 14.3 0.5 7.8 65 3.2 NW 70 96 38 52 997.4 - 1.0
31/07:00am 14.1 -0.5 7.6 65 3.2 NW 74 106 40 57 997.6 - 1.0
31/06:30am 14.2 -1.0 6.8 61 3.6 NW 76 98 41 53 997.5 - 1.0
31/06:00am 14.2 0.3 6.6 60 3.7 NW 69 91 37 49 998.2 998.3 1.0
31/05:30am 14.2 -1.8 6.3 59 3.8 NW 80 104 43 56 998.2 - 1.0
31/05:00am 14.1 -0.2 7.2 63 3.4 NW 72 98 39 53 998.5 - 1.0
31/04:44am 14.0 0.2 7.8 66 3.1 NW 70 93 38 50 999.0 - 1.0
31/04:30am 14.2 0.3 7.5 64 3.3 NW 70 87 38 47 999.2 - 1.0
31/04:00am 14.2 -0.7 7.9 66 3.1 WNW 76 95 41 51 999.4 - 1.0
31/03:30am 14.3 0.3 8.5 68 2.9 NW 72 106 39 57 999.9 - 1.0
31/03:00am 14.4 0.2 7.7 64 3.4 NW 72 93 39 50 1000.2 1000.3 1.0
31/02:38am 14.2 1.1 8.2 67 3.0 NW 67 85 36 46 1000.5 - 1.0
31/02:30am 14.3 0.9 8.5 68 2.9 NW 69 83 37 45 1000.8 - 1.0
31/02:04am 14.3 0.9 8.5 68 2.9 NW 69 89 37 48 1001.3 - 1.0
31/02:00am 14.2 0.6 8.6 69 2.8 NW 70 87 38 47 1001.3 - 1.0
31/01:30am 14.7 -2.0 7.7 63 3.5 WNW 85 106 46 57 1001.1 - 1.0
31/01:14am 14.5 0.4 8.0 65 3.3 NW 72 93 39 50 1001.7 - 1.0
31/01:00am 14.4 -0.1 8.1 66 3.2 WNW 74 85 40 46 1002.1 - 1.0
31/12:30am 14.5 1.0 8.2 66 3.2 WNW 69 91 37 49 1002.5 - 1.0
31/12:00am 14.5 1.8 8.5 67 3.1 NW 65 85 35 46 1003.0 1003.0 1.0
 
Date/Time
EST
Temp
°C
App
Temp
°C
Dew
Point
Rel
Hum
%
Delta-T
°C
Wind Press
QNH
hPa
Press
MSL
hPa
Rain
since 9 am
mm
Dir
 
Spd
km/h
Gust
km/h
Spd
kts
Gust
kts
30/11:33pm 14.7 0.8 8.9 68 3.0 WNW 72 91 39 49 1003.3 - 1.0
30/11:30pm 14.4 0.9 9.0 70 2.8 WNW 70 83 38 45 1003.5 - 1.0
30/11:00pm 14.4 -1.1 8.8 69 2.9 WNW 80 98 43 53 1003.5 - 1.0
30/10:58pm 14.5 -0.9 8.9 69 2.9 WNW 80 98 43 53 1003.4 - 1.0
30/10:30pm 14.6 -1.3 9.2 70 2.8 WNW 83 98 45 53 1003.3 - 1.0
30/10:10pm 14.6 0.5 9.6 72 2.6 WNW 74 95 40 51 1003.7 - 1.0
30/10:00pm 14.4 1.2 9.6 73 2.5 WNW 69 80 37 43 1004.2 - 1.0
30/09:30pm 14.3 0.6 9.9 75 2.3 WNW 72 83 39 45 1004.7 - 1.0
30/09:00pm 14.2 1.5 9.8 75 2.3 WNW 67 78 36 42 1004.9 1005.0 1.0
30/08:30pm 14.2 1.2 10.2 77 2.1 WNW 69 87 37 47 1004.9 - 1.0
30/08:29pm 14.2 1.2 10.2 77 2.1 WNW 69 87 37 47 1004.8 - 1.0
30/08:00pm 13.4 1.3 10.6 83 1.5 WNW 65 78 35 42 1005.4 - 1.0
30/07:56pm 13.8 2.2 11.0 83 1.5 WNW 63 78 34 42 1005.3 - 1.0
30/07:30pm 13.4 4.3 11.1 86 1.2 WNW 50 57 27 31 1005.9 - 1.0
30/07:00pm 13.4 5.0 11.1 86 1.2 NW 46 59 25 32 1005.5 - 1.0
30/06:41pm 13.6 4.9 11.3 86 1.2 WNW 48 65 26 35 1005.9 - 1.0
30/06:30pm 13.7 1.0 11.4 86 1.2 WNW 69 80 37 43 1005.4 - 1.0
30/06:25pm 13.7 1.1 11.7 88 1.1 WNW 69 76 37 41 1005.3 - 1.0
30/06:00pm 13.2 4.6 11.8 91 0.8 NW 48 61 26 33 1005.7 1005.8 1.0
30/05:30pm 13.2 1.7 11.6 90 0.9 WNW 63 72 34 39 1005.6 - 0.8
30/05:00pm 13.7 4.2 11.0 84 1.4 WNW 52 67 28 36 1005.3 - 0.0
30/04:41pm 14.1 2.8 10.7 80 1.8 WNW 61 80 33 43 1005.1 - 0.0
30/04:30pm 14.3 1.4 10.5 78 2.0 WNW 69 80 37 43 1004.8 - 0.0
30/04:19pm 14.4 4.0 10.6 78 2.0 NW 56 74 30 40 1004.9 - 0.0
30/04:00pm 14.4 1.2 10.2 76 2.2 WNW 70 83 38 45 1004.7 - 0.0
30/03:30pm 14.7 0.4 10.3 75 2.3 WNW 76 85 41 46 1004.5 - 0.0
30/03:00pm 14.8 1.1 9.8 72 2.6 WNW 72 89 39 48 1004.7 1004.8 0.0
30/02:30pm 15.1 2.0 9.9 71 2.7 WNW 69 76 37 41 1005.1 - 0.0
30/02:00pm 14.6 1.9 9.8 73 2.5 WNW 67 76 36 41 1005.5 - 0.0
30/01:30pm 14.3 2.2 9.5 73 2.5 WNW 63 72 34 39 1005.6 - 0.0
30/01:00pm 14.7 1.3 9.5 71 2.7 WNW 70 82 38 44 1006.0 - 0.0
30/12:30pm 14.2 -0.8 9.0 71 2.7 WNW 78 85 42 46 1006.0 - 0.0
30/12:00pm 14.3 -0.2 9.5 73 2.5 WNW 76 87 41 47 1006.1 1006.2 0.0
30/11:30am 14.2 -0.7 9.4 73 2.5 WNW 78 91 42 49 1006.5 - 0.0
30/11:07am 14.2 0.3 9.0 71 2.7 WNW 72 91 39 49 1006.6 - 0.0
30/11:00am 14.0 0.7 9.2 73 2.5 WNW 69 82 37 44 1006.9 - 0.0
30/10:30am 13.5 0.3 9.4 76 2.1 WNW 69 76 37 41 1007.7 - 0.0
30/10:00am 13.3 -0.1 9.5 78 1.9 WNW 70 80 38 43 1007.3 - 0.0
30/09:30am 12.9 -1.3 9.4 79 1.8 WNW 74 83 40 45 1007.0 - 0.0
30/09:00am 12.5 -0.8 9.0 79 1.8 WNW 69 78 37 42 1007.6 1007.7 0.8
30/08:30am 12.1 -0.7 9.5 84 1.3 WNW 67 76 36 41 1007.3 - 0.8
30/08:29am 12.1 -0.7 9.5 84 1.3 WNW 67 76 36 41 1007.4 - 0.8
30/08:00am 12.0 2.9 9.7 86 1.2 NW 48 63 26 34 1007.7 - 0.8
30/07:30am 12.2 3.1 9.9 86 1.2 WNW 48 57 26 31 1007.9 - 0.8
30/07:02am 12.0 2.2 10.2 89 0.9 WNW 52 70 28 38 1007.2 - 0.8
30/07:00am 12.0 2.2 10.2 89 0.9 WNW 52 69 28 37 1007.2 - 0.8
30/06:46am 11.6 -0.3 9.9 89 0.9 WNW 63 82 34 44 1006.7 - 0.8
30/06:30am 11.3 -4.7 8.9 85 1.2 W 83 106 45 57 1006.3 - 0.8
30/06:25am 11.2 -5.3 8.6 84 1.3 W 85 106 46 57 1006.3 - 0.8
30/06:22am 10.9 -7.2 8.0 82 1.4 WNW 93 106 50 57 1005.9 - 0.8
30/06:20am 12.4 -0.8 9.4 82 1.5 WNW 69 93 37 50 1006.3 - 0.8
30/06:00am 12.8 -0.6 9.6 81 1.6 W 70 83 38 45 1006.2 1006.3 0.8
30/05:30am 12.8 -1.3 9.6 81 1.6 WNW 74 87 40 47 1005.9 - 0.8
30/05:00am 12.9 -1.9 9.7 81 1.6 W 78 93 42 50 1005.6 - 0.8
30/04:30am 12.9 -2.1 10.4 85 1.3 W 80 93 43 50 1005.6 - 0.8
30/04:00am 12.6 -0.7 11.2 91 0.7 W 72 83 39 45 1005.8 - 0.8
30/03:51am 12.1 -1.7 10.7 91 0.7 W 74 93 40 50 1005.6 - 0.8
30/03:30am 11.5 -4.9 10.2 92 0.7 W 87 98 47 53 1005.1 - 0.8
30/03:20am 10.7 -4.6 9.5 92 0.6 W 80 117 43 63 1005.3 - 0.8
30/03:13am 10.7 -8.9 9.1 90 0.8 W 102 120 55 65 1005.0 - 0.8
30/03:09am 10.5 -10.0 8.3 86 1.1 W 106 120 57 65 1004.4 - 0.2
30/03:08am 11.8 -3.6 9.2 84 1.3 W 80 120 43 65 1004.7 - 0.2
30/03:01am 12.9 -1.0 10.3 84 1.4 WNW 74 95 40 51 1005.3 - 0.2
30/03:00am 12.9 -0.6 10.3 84 1.4 WNW 72 87 39 47 1005.3 1005.4 0.2
30/02:41am 13.1 -2.0 10.1 82 1.6 WNW 80 100 43 54 1004.8 - 0.2
30/02:30am 13.2 -2.3 10.2 82 1.6 WNW 82 95 44 51 1004.8 - 0.2
30/02:00am 13.3 -3.5 10.3 82 1.6 WNW 89 107 48 58 1004.0 - 0.2

Other Formats:

Comma delimited format used in spreadsheet applications
http://www.bom.gov.au/fwo/IDT60801/IDT60801.94949.axf

JavaScript Object Notation format (JSON) in row-major order
http://www.bom.gov.au/fwo/IDT60801/IDT60801.94949.json